createdAt,value
2022-12-08T00:03:46.985Z,3.2
2022-12-08T00:18:47.005Z,3.2
2022-12-08T00:33:46.980Z,3.1
2022-12-08T00:48:47.015Z,3.1
2022-12-08T01:03:47.202Z,3.1
2022-12-08T01:18:46.994Z,3.1
2022-12-08T01:33:47.008Z,3
2022-12-08T01:48:46.990Z,3
2022-12-08T02:03:47.007Z,3.1
2022-12-08T02:18:53.709Z,3.1
2022-12-08T02:33:46.992Z,3.1
2022-12-08T02:48:46.991Z,3
2022-12-08T03:03:46.980Z,3
2022-12-08T03:18:47.001Z,2.9
2022-12-08T03:33:47.031Z,2.9
2022-12-08T03:48:46.978Z,2.9
2022-12-08T04:03:47.018Z,2.9
2022-12-08T04:18:47.014Z,2.9
2022-12-08T04:33:46.991Z,2.8
2022-12-08T04:48:47.017Z,2.8
2022-12-08T05:03:47.009Z,2.8
2022-12-08T05:18:46.993Z,2.8
2022-12-08T05:33:46.987Z,2.7
2022-12-08T05:48:46.982Z,2.6
2022-12-08T06:03:47.044Z,2.6
2022-12-08T06:18:47.014Z,2.5
2022-12-08T06:33:46.997Z,2.4
2022-12-08T06:48:47.016Z,2.4
2022-12-08T07:03:46.974Z,2.3
2022-12-08T07:18:46.982Z,2.2
2022-12-08T07:33:46.990Z,1.9
2022-12-08T07:48:46.989Z,1.9
2022-12-08T08:03:47.014Z,2
2022-12-08T08:18:47.017Z,1.8
2022-12-08T08:33:46.990Z,1.8
2022-12-08T08:48:46.968Z,1.9
2022-12-08T09:03:47.018Z,2.1
2022-12-08T09:18:46.987Z,2.1
2022-12-08T09:33:46.982Z,2.3
2022-12-08T09:48:46.958Z,2.3
2022-12-08T10:03:47.016Z,2.6
2022-12-08T10:18:47.011Z,2.6
2022-12-08T10:33:46.991Z,2.7
2022-12-08T10:48:47.002Z,3
2022-12-08T11:03:47.013Z,3.1
2022-12-08T11:18:47.064Z,3.1
2022-12-08T11:33:46.999Z,3.2
2022-12-08T11:48:46.947Z,3.2
2022-12-08T12:03:47.100Z,3.2
2022-12-08T12:18:46.991Z,3.2
2022-12-08T12:33:47.010Z,3.2
2022-12-08T12:48:47.019Z,3.3
2022-12-08T13:03:46.995Z,3.3
2022-12-08T13:18:47.024Z,3.5
2022-12-08T13:33:47.005Z,3.6
2022-12-08T13:50:23.317Z,3.5
2022-12-08T14:04:04.565Z,3.6
2022-12-08T14:18:47.007Z,3.4
2022-12-08T14:33:49.356Z,3.1
2022-12-08T14:48:46.972Z,3.1
2022-12-08T15:03:50.845Z,2.9
2022-12-08T15:18:47.026Z,2.9
2022-12-08T15:33:46.982Z,2.9
2022-12-08T15:48:46.990Z,2.7
2022-12-08T16:18:46.982Z,2.6
2022-12-08T16:33:47.004Z,2.5
2022-12-08T16:48:46.979Z,2.2
2022-12-08T17:04:01.260Z,2
2022-12-08T17:18:47.007Z,2.1
2022-12-08T17:33:47.028Z,2.1
2022-12-08T17:48:47.009Z,2.2
2022-12-08T18:03:46.995Z,2.2
2022-12-08T18:18:46.986Z,2.2
2022-12-08T18:33:46.984Z,2
2022-12-08T18:48:47.013Z,1.7
2022-12-08T19:04:04.981Z,1.8
2022-12-08T19:18:47.005Z,1.9
2022-12-08T19:33:46.981Z,1.9
2022-12-08T19:48:47.015Z,2
2022-12-08T20:03:46.996Z,1.9
2022-12-08T20:18:46.981Z,1.6
2022-12-08T20:33:47.032Z,1.5
2022-12-08T20:48:46.988Z,1.3
2022-12-08T21:03:47.094Z,1.1
2022-12-08T21:18:46.976Z,1.1
2022-12-08T21:33:47.041Z,1
2022-12-08T21:48:47.184Z,0.9
2022-12-08T22:03:47.323Z,0.8
2022-12-08T22:18:47.078Z,0.9
2022-12-08T22:33:46.996Z,0.8
2022-12-08T22:48:46.977Z,0.6
2022-12-08T23:03:47.122Z,0.4
2022-12-08T23:18:47.043Z,0.3
2022-12-08T23:33:47.089Z,0.2
2022-12-08T23:48:47.019Z,0.1
